sensor_id;sensor_type;location;lat;lon;timestamp;temperature;humidity
18733;DHT22;9495;51.210;2.934;2024-02-26T00:02:00;10.30;99.90
18733;DHT22;9495;51.210;2.934;2024-02-26T00:04:29;10.10;99.90
18733;DHT22;9495;51.210;2.934;2024-02-26T00:06:58;10.50;99.90
18733;DHT22;9495;51.210;2.934;2024-02-26T00:09:27;10.00;99.90
18733;DHT22;9495;51.210;2.934;2024-02-26T00:11:56;10.00;99.90
18733;DHT22;9495;51.210;2.934;2024-02-26T00:14:25;10.10;99.90
18733;DHT22;9495;51.210;2.934;2024-02-26T00:16:53;9.90;99.90
18733;DHT22;9495;51.210;2.934;2024-02-26T00:19:22;10.30;99.90
18733;DHT22;9495;51.210;2.934;2024-02-26T00:21:50;9.80;99.90
18733;DHT22;9495;51.210;2.934;2024-02-26T00:24:22;9.70;99.90
18733;DHT22;9495;51.210;2.934;2024-02-26T00:26:50;9.80;99.90
18733;DHT22;9495;51.210;2.934;2024-02-26T00:29:22;9.80;99.90
18733;DHT22;9495;51.210;2.934;2024-02-26T00:31:50;9.80;99.90
18733;DHT22;9495;51.210;2.934;2024-02-26T00:34:19;9.70;99.90
18733;DHT22;9495;51.210;2.934;2024-02-26T00:36:47;9.60;99.90
18733;DHT22;9495;51.210;2.934;2024-02-26T00:39:16;9.70;99.90
18733;DHT22;9495;51.210;2.934;2024-02-26T00:41:46;9.90;99.90
18733;DHT22;9495;51.210;2.934;2024-02-26T00:44:15;10.20;99.90
18733;DHT22;9495;51.210;2.934;2024-02-26T00:46:43;9.90;99.90
18733;DHT22;9495;51.210;2.934;2024-02-26T00:49:12;9.80;99.90
18733;DHT22;9495;51.210;2.934;2024-02-26T00:51:40;9.90;99.90
18733;DHT22;9495;51.210;2.934;2024-02-26T00:54:09;9.80;99.90
18733;DHT22;9495;51.210;2.934;2024-02-26T00:56:38;9.60;99.90
18733;DHT22;9495;51.210;2.934;2024-02-26T00:59:08;9.60;99.90
18733;DHT22;9495;51.210;2.934;2024-02-26T01:01:36;9.70;99.90
18733;DHT22;9495;51.210;2.934;2024-02-26T01:04:05;9.50;99.90
18733;DHT22;9495;51.210;2.934;2024-02-26T01:06:33;10.10;99.90
18733;DHT22;9495;51.210;2.934;2024-02-26T01:09:02;9.80;99.90
18733;DHT22;9495;51.210;2.934;2024-02-26T01:11:31;9.80;99.90
18733;DHT22;9495;51.210;2.934;2024-02-26T01:13:59;9.60;99.90
18733;DHT22;9495;51.210;2.934;2024-02-26T01:16:29;9.90;99.90
18733;DHT22;9495;51.210;2.934;2024-02-26T01:18:59;9.50;99.90
18733;DHT22;9495;51.210;2.934;2024-02-26T01:21:27;9.60;99.90
18733;DHT22;9495;51.210;2.934;2024-02-26T01:23:57;9.70;99.90
18733;DHT22;9495;51.210;2.934;2024-02-26T01:26:26;9.40;99.90
18733;DHT22;9495;51.210;2.934;2024-02-26T01:28:54;9.40;99.90
18733;DHT22;9495;51.210;2.934;2024-02-26T01:31:23;9.40;99.90
18733;DHT22;9495;51.210;2.934;2024-02-26T01:33:53;9.50;99.90
18733;DHT22;9495;51.210;2.934;2024-02-26T01:36:21;10.00;99.90
18733;DHT22;9495;51.210;2.934;2024-02-26T01:38:50;10.10;99.90
18733;DHT22;9495;51.210;2.934;2024-02-26T01:41:18;9.50;99.90
18733;DHT22;9495;51.210;2.934;2024-02-26T01:43:47;9.80;99.90
18733;DHT22;9495;51.210;2.934;2024-02-26T01:46:16;9.90;99.90
18733;DHT22;9495;51.210;2.934;2024-02-26T01:48:46;9.80;99.90
18733;DHT22;9495;51.210;2.934;2024-02-26T01:51:18;9.60;99.90
18733;DHT22;9495;51.210;2.934;2024-02-26T01:53:47;9.50;99.90
18733;DHT22;9495;51.210;2.934;2024-02-26T01:56:17;9.50;99.90
18733;DHT22;9495;51.210;2.934;2024-02-26T01:58:46;9.60;99.90
18733;DHT22;9495;51.210;2.934;2024-02-26T02:01:16;9.80;99.90
18733;DHT22;9495;51.210;2.934;2024-02-26T02:03:46;9.80;99.90
18733;DHT22;9495;51.210;2.934;2024-02-26T02:06:16;9.80;99.90
18733;DHT22;9495;51.210;2.934;2024-02-26T02:08:46;9.90;99.90
18733;DHT22;9495;51.210;2.934;2024-02-26T02:11:14;9.70;99.90
18733;DHT22;9495;51.210;2.934;2024-02-26T02:13:43;9.70;99.90
18733;DHT22;9495;51.210;2.934;2024-02-26T02:16:12;9.60;99.90
18733;DHT22;9495;51.210;2.934;2024-02-26T02:18:41;9.60;99.90
18733;DHT22;9495;51.210;2.934;2024-02-26T02:21:10;10.10;99.90
18733;DHT22;9495;51.210;2.934;2024-02-26T02:23:39;10.20;99.90
18733;DHT22;9495;51.210;2.934;2024-02-26T02:26:09;10.00;99.90
18733;DHT22;9495;51.210;2.934;2024-02-26T02:28:40;9.70;99.90
18733;DHT22;9495;51.210;2.934;2024-02-26T02:31:08;9.70;99.90
18733;DHT22;9495;51.210;2.934;2024-02-26T02:33:37;9.80;99.90
18733;DHT22;9495;51.210;2.934;2024-02-26T02:36:06;9.70;99.90
18733;DHT22;9495;51.210;2.934;2024-02-26T02:38:39;9.60;99.90
18733;DHT22;9495;51.210;2.934;2024-02-26T02:41:16;9.90;99.90
18733;DHT22;9495;51.210;2.934;2024-02-26T02:43:45;9.60;99.90
18733;DHT22;9495;51.210;2.934;2024-02-26T02:46:14;9.50;99.90
18733;DHT22;9495;51.210;2.934;2024-02-26T02:48:42;9.70;99.90
18733;DHT22;9495;51.210;2.934;2024-02-26T02:51:12;9.60;99.90
18733;DHT22;9495;51.210;2.934;2024-02-26T02:53:42;9.50;99.90
18733;DHT22;9495;51.210;2.934;2024-02-26T02:56:10;9.30;99.90
18733;DHT22;9495;51.210;2.934;2024-02-26T02:58:39;9.20;99.90
18733;DHT22;9495;51.210;2.934;2024-02-26T03:01:08;9.30;99.90
18733;DHT22;9495;51.210;2.934;2024-02-26T03:03:37;9.30;99.90
18733;DHT22;9495;51.210;2.934;2024-02-26T03:06:05;9.70;99.90
18733;DHT22;9495;51.210;2.934;2024-02-26T03:08:34;9.40;99.90
18733;DHT22;9495;51.210;2.934;2024-02-26T03:11:06;9.50;99.90
18733;DHT22;9495;51.210;2.934;2024-02-26T03:13:35;9.20;99.90
18733;DHT22;9495;51.210;2.934;2024-02-26T03:16:05;9.50;99.90
18733;DHT22;9495;51.210;2.934;2024-02-26T03:18:34;9.30;99.90
18733;DHT22;9495;51.210;2.934;2024-02-26T03:21:03;9.50;99.90
18733;DHT22;9495;51.210;2.934;2024-02-26T03:23:32;9.50;99.90
18733;DHT22;9495;51.210;2.934;2024-02-26T03:26:03;9.40;99.90
18733;DHT22;9495;51.210;2.934;2024-02-26T03:28:33;9.80;99.90
18733;DHT22;9495;51.210;2.934;2024-02-26T03:31:02;10.00;99.90
18733;DHT22;9495;51.210;2.934;2024-02-26T03:33:31;10.00;99.90
18733;DHT22;9495;51.210;2.934;2024-02-26T03:35:59;9.80;99.90
18733;DHT22;9495;51.210;2.934;2024-02-26T03:38:28;9.70;99.90
18733;DHT22;9495;51.210;2.934;2024-02-26T03:40:57;10.00;99.90
18733;DHT22;9495;51.210;2.934;2024-02-26T03:43:25;9.80;99.90
18733;DHT22;9495;51.210;2.934;2024-02-26T03:45:55;10.10;99.90
18733;DHT22;9495;51.210;2.934;2024-02-26T03:48:24;10.10;99.90
18733;DHT22;9495;51.210;2.934;2024-02-26T03:50:53;10.20;99.90
18733;DHT22;9495;51.210;2.934;2024-02-26T03:53:21;10.50;99.90
18733;DHT22;9495;51.210;2.934;2024-02-26T03:55:50;9.80;99.90
18733;DHT22;9495;51.210;2.934;2024-02-26T03:58:19;9.90;99.90
18733;DHT22;9495;51.210;2.934;2024-02-26T04:00:48;9.80;99.90
18733;DHT22;9495;51.210;2.934;2024-02-26T04:03:18;9.80;99.90
18733;DHT22;9495;51.210;2.934;2024-02-26T04:05:47;9.50;99.90
18733;DHT22;9495;51.210;2.934;2024-02-26T04:08:15;9.80;99.90
18733;DHT22;9495;51.210;2.934;2024-02-26T04:10:44;9.60;99.90
18733;DHT22;9495;51.210;2.934;2024-02-26T04:13:13;9.70;99.90
18733;DHT22;9495;51.210;2.934;2024-02-26T04:15:42;10.00;99.90
18733;DHT22;9495;51.210;2.934;2024-02-26T04:18:10;9.80;99.90
18733;DHT22;9495;51.210;2.934;2024-02-26T04:20:40;9.80;99.90
18733;DHT22;9495;51.210;2.934;2024-02-26T04:23:09;10.00;99.90
18733;DHT22;9495;51.210;2.934;2024-02-26T04:25:38;9.80;99.90
18733;DHT22;9495;51.210;2.934;2024-02-26T04:28:06;9.80;99.90
18733;DHT22;9495;51.210;2.934;2024-02-26T04:30:35;9.50;99.90
18733;DHT22;9495;51.210;2.934;2024-02-26T04:33:03;9.50;99.90
18733;DHT22;9495;51.210;2.934;2024-02-26T04:35:32;10.10;99.90
18733;DHT22;9495;51.210;2.934;2024-02-26T04:38:03;10.10;99.90
18733;DHT22;9495;51.210;2.934;2024-02-26T04:40:32;10.40;99.90
18733;DHT22;9495;51.210;2.934;2024-02-26T04:43:00;10.50;99.90
18733;DHT22;9495;51.210;2.934;2024-02-26T04:45:29;10.20;99.90
18733;DHT22;9495;51.210;2.934;2024-02-26T04:47:58;9.90;99.90
18733;DHT22;9495;51.210;2.934;2024-02-26T04:50:27;10.50;99.90
18733;DHT22;9495;51.210;2.934;2024-02-26T04:52:56;9.80;99.90
18733;DHT22;9495;51.210;2.934;2024-02-26T04:55:26;10.20;99.90
18733;DHT22;9495;51.210;2.934;2024-02-26T04:57:54;10.30;99.90
18733;DHT22;9495;51.210;2.934;2024-02-26T05:00:22;10.90;99.90
18733;DHT22;9495;51.210;2.934;2024-02-26T05:02:51;10.90;99.90
18733;DHT22;9495;51.210;2.934;2024-02-26T05:05:20;10.70;99.90
18733;DHT22;9495;51.210;2.934;2024-02-26T05:07:48;10.30;99.90
18733;DHT22;9495;51.210;2.934;2024-02-26T05:10:17;10.20;99.90
18733;DHT22;9495;51.210;2.934;2024-02-26T05:12:46;10.30;99.90
18733;DHT22;9495;51.210;2.934;2024-02-26T05:15:15;10.30;99.90
18733;DHT22;9495;51.210;2.934;2024-02-26T05:17:45;10.20;99.90
18733;DHT22;9495;51.210;2.934;2024-02-26T05:20:14;10.50;99.90
18733;DHT22;9495;51.210;2.934;2024-02-26T05:22:43;10.50;99.90
18733;DHT22;9495;51.210;2.934;2024-02-26T05:25:11;10.70;99.90
18733;DHT22;9495;51.210;2.934;2024-02-26T05:27:40;10.00;99.90
18733;DHT22;9495;51.210;2.934;2024-02-26T05:30:10;10.10;99.90
18733;DHT22;9495;51.210;2.934;2024-02-26T05:32:39;10.70;99.90
18733;DHT22;9495;51.210;2.934;2024-02-26T05:35:08;11.20;99.90
18733;DHT22;9495;51.210;2.934;2024-02-26T05:37:36;10.80;99.90
18733;DHT22;9495;51.210;2.934;2024-02-26T05:40:06;10.40;99.90
18733;DHT22;9495;51.210;2.934;2024-02-26T05:42:34;10.70;99.90
18733;DHT22;9495;51.210;2.934;2024-02-26T05:45:03;10.60;99.90
18733;DHT22;9495;51.210;2.934;2024-02-26T05:47:35;10.90;99.90
18733;DHT22;9495;51.210;2.934;2024-02-26T05:50:09;10.30;99.90
18733;DHT22;9495;51.210;2.934;2024-02-26T05:52:38;10.30;99.90
18733;DHT22;9495;51.210;2.934;2024-02-26T05:55:07;10.30;99.90
18733;DHT22;9495;51.210;2.934;2024-02-26T05:57:36;10.30;99.90
18733;DHT22;9495;51.210;2.934;2024-02-26T06:00:06;10.30;99.90
18733;DHT22;9495;51.210;2.934;2024-02-26T06:02:38;10.00;99.90
18733;DHT22;9495;51.210;2.934;2024-02-26T06:05:07;10.60;99.90
18733;DHT22;9495;51.210;2.934;2024-02-26T06:07:36;10.20;99.90
18733;DHT22;9495;51.210;2.934;2024-02-26T06:10:05;10.60;99.90
18733;DHT22;9495;51.210;2.934;2024-02-26T06:12:35;10.60;99.90
18733;DHT22;9495;51.210;2.934;2024-02-26T06:15:04;10.70;99.90
18733;DHT22;9495;51.210;2.934;2024-02-26T06:17:33;10.70;99.90
18733;DHT22;9495;51.210;2.934;2024-02-26T06:20:03;10.20;99.90
18733;DHT22;9495;51.210;2.934;2024-02-26T06:22:34;9.90;99.90
18733;DHT22;9495;51.210;2.934;2024-02-26T06:25:02;10.20;99.90
18733;DHT22;9495;51.210;2.934;2024-02-26T06:27:30;10.10;99.90
18733;DHT22;9495;51.210;2.934;2024-02-26T06:29:59;10.10;99.90
18733;DHT22;9495;51.210;2.934;2024-02-26T06:32:27;10.30;99.90
18733;DHT22;9495;51.210;2.934;2024-02-26T06:34:56;10.60;99.90
18733;DHT22;9495;51.210;2.934;2024-02-26T06:37:26;10.10;99.90
18733;DHT22;9495;51.210;2.934;2024-02-26T06:39:55;9.80;99.90
18733;DHT22;9495;51.210;2.934;2024-02-26T06:42:23;9.80;99.90
18733;DHT22;9495;51.210;2.934;2024-02-26T06:44:52;10.40;99.90
18733;DHT22;9495;51.210;2.934;2024-02-26T06:47:20;10.40;99.90
18733;DHT22;9495;51.210;2.934;2024-02-26T06:49:49;10.40;99.90
18733;DHT22;9495;51.210;2.934;2024-02-26T06:52:17;10.00;99.90
18733;DHT22;9495;51.210;2.934;2024-02-26T06:54:47;9.70;99.90
18733;DHT22;9495;51.210;2.934;2024-02-26T06:57:18;10.30;99.90
18733;DHT22;9495;51.210;2.934;2024-02-26T06:59:47;10.60;99.90
18733;DHT22;9495;51.210;2.934;2024-02-26T07:02:15;10.20;99.90
18733;DHT22;9495;51.210;2.934;2024-02-26T07:04:44;10.50;99.90
18733;DHT22;9495;51.210;2.934;2024-02-26T07:07:12;10.40;99.90
18733;DHT22;9495;51.210;2.934;2024-02-26T07:09:42;10.20;99.90
18733;DHT22;9495;51.210;2.934;2024-02-26T07:12:12;10.80;99.90
18733;DHT22;9495;51.210;2.934;2024-02-26T07:14:41;10.80;99.90
18733;DHT22;9495;51.210;2.934;2024-02-26T07:17:10;10.90;99.90
18733;DHT22;9495;51.210;2.934;2024-02-26T07:19:39;10.50;99.90
18733;DHT22;9495;51.210;2.934;2024-02-26T07:22:07;10.50;99.90
18733;DHT22;9495;51.210;2.934;2024-02-26T07:24:36;10.70;99.90
18733;DHT22;9495;51.210;2.934;2024-02-26T07:27:05;10.30;99.90
18733;DHT22;9495;51.210;2.934;2024-02-26T07:29:34;10.60;99.90
18733;DHT22;9495;51.210;2.934;2024-02-26T07:32:03;10.10;99.90
18733;DHT22;9495;51.210;2.934;2024-02-26T07:34:32;11.50;99.90
18733;DHT22;9495;51.210;2.934;2024-02-26T07:37:01;11.20;99.90
18733;DHT22;9495;51.210;2.934;2024-02-26T07:39:30;10.60;99.90
18733;DHT22;9495;51.210;2.934;2024-02-26T07:41:59;10.10;99.90
18733;DHT22;9495;51.210;2.934;2024-02-26T07:44:27;11.00;99.90
18733;DHT22;9495;51.210;2.934;2024-02-26T07:46:57;11.70;99.90
18733;DHT22;9495;51.210;2.934;2024-02-26T07:49:25;11.40;99.90
18733;DHT22;9495;51.210;2.934;2024-02-26T07:51:54;11.00;99.90
18733;DHT22;9495;51.210;2.934;2024-02-26T07:54:25;10.50;99.90
18733;DHT22;9495;51.210;2.934;2024-02-26T07:56:54;10.60;99.90
18733;DHT22;9495;51.210;2.934;2024-02-26T07:59:22;10.60;99.90
18733;DHT22;9495;51.210;2.934;2024-02-26T08:01:51;12.00;99.90
18733;DHT22;9495;51.210;2.934;2024-02-26T08:04:26;11.20;99.90
18733;DHT22;9495;51.210;2.934;2024-02-26T08:06:55;10.70;99.90
18733;DHT22;9495;51.210;2.934;2024-02-26T08:09:23;10.70;99.90
18733;DHT22;9495;51.210;2.934;2024-02-26T08:11:52;10.60;99.90
18733;DHT22;9495;51.210;2.934;2024-02-26T08:14:21;10.90;99.90
18733;DHT22;9495;51.210;2.934;2024-02-26T08:16:50;11.30;99.90
18733;DHT22;9495;51.210;2.934;2024-02-26T08:19:18;11.00;99.90
18733;DHT22;9495;51.210;2.934;2024-02-26T08:21:48;11.20;99.90
18733;DHT22;9495;51.210;2.934;2024-02-26T08:24:17;10.80;99.90
18733;DHT22;9495;51.210;2.934;2024-02-26T08:26:45;10.40;99.90
18733;DHT22;9495;51.210;2.934;2024-02-26T08:29:14;10.30;99.90
18733;DHT22;9495;51.210;2.934;2024-02-26T08:31:43;10.80;99.90
18733;DHT22;9495;51.210;2.934;2024-02-26T08:34:11;10.60;99.90
18733;DHT22;9495;51.210;2.934;2024-02-26T08:36:40;10.30;99.90
18733;DHT22;9495;51.210;2.934;2024-02-26T08:39:11;10.40;99.90
18733;DHT22;9495;51.210;2.934;2024-02-26T08:41:41;10.10;99.90
18733;DHT22;9495;51.210;2.934;2024-02-26T08:44:10;10.90;99.90
18733;DHT22;9495;51.210;2.934;2024-02-26T08:46:38;10.20;99.90
18733;DHT22;9495;51.210;2.934;2024-02-26T08:49:07;9.80;99.90
18733;DHT22;9495;51.210;2.934;2024-02-26T08:51:41;10.20;99.90
18733;DHT22;9495;51.210;2.934;2024-02-26T08:54:12;10.50;99.90
18733;DHT22;9495;51.210;2.934;2024-02-26T08:56:40;10.60;99.90
18733;DHT22;9495;51.210;2.934;2024-02-26T08:59:09;10.20;99.90
18733;DHT22;9495;51.210;2.934;2024-02-26T09:01:38;10.40;99.90
18733;DHT22;9495;51.210;2.934;2024-02-26T09:04:06;10.30;99.90
18733;DHT22;9495;51.210;2.934;2024-02-26T09:06:36;10.60;99.90
18733;DHT22;9495;51.210;2.934;2024-02-26T09:09:05;11.30;99.90
18733;DHT22;9495;51.210;2.934;2024-02-26T09:11:35;11.50;99.90
18733;DHT22;9495;51.210;2.934;2024-02-26T09:14:03;10.80;99.90
18733;DHT22;9495;51.210;2.934;2024-02-26T09:16:34;10.80;99.90
18733;DHT22;9495;51.210;2.934;2024-02-26T09:19:02;10.30;99.90
18733;DHT22;9495;51.210;2.934;2024-02-26T09:21:31;11.00;99.90
18733;DHT22;9495;51.210;2.934;2024-02-26T09:24:00;10.80;99.90
18733;DHT22;9495;51.210;2.934;2024-02-26T09:26:29;11.00;99.90
18733;DHT22;9495;51.210;2.934;2024-02-26T09:28:59;11.10;99.90
18733;DHT22;9495;51.210;2.934;2024-02-26T09:31:27;10.90;99.90
18733;DHT22;9495;51.210;2.934;2024-02-26T09:33:56;11.10;99.90
18733;DHT22;9495;51.210;2.934;2024-02-26T09:36:29;10.90;99.90
18733;DHT22;9495;51.210;2.934;2024-02-26T09:38:58;10.80;99.90
18733;DHT22;9495;51.210;2.934;2024-02-26T09:41:28;11.20;99.90
18733;DHT22;9495;51.210;2.934;2024-02-26T09:43:59;10.50;99.90
18733;DHT22;9495;51.210;2.934;2024-02-26T09:46:30;9.60;99.90
18733;DHT22;9495;51.210;2.934;2024-02-26T09:48:59;8.60;99.90
18733;DHT22;9495;51.210;2.934;2024-02-26T09:51:28;8.80;99.90
18733;DHT22;9495;51.210;2.934;2024-02-26T09:53:59;8.50;99.90
18733;DHT22;9495;51.210;2.934;2024-02-26T09:56:30;8.80;99.90
18733;DHT22;9495;51.210;2.934;2024-02-26T09:59:02;8.60;99.90
18733;DHT22;9495;51.210;2.934;2024-02-26T10:01:34;8.30;99.90
18733;DHT22;9495;51.210;2.934;2024-02-26T10:04:03;8.30;99.90
18733;DHT22;9495;51.210;2.934;2024-02-26T10:06:31;8.40;99.90
18733;DHT22;9495;51.210;2.934;2024-02-26T10:09:00;8.30;99.90
18733;DHT22;9495;51.210;2.934;2024-02-26T10:11:33;8.30;99.90
18733;DHT22;9495;51.210;2.934;2024-02-26T10:14:05;8.20;99.90
18733;DHT22;9495;51.210;2.934;2024-02-26T10:16:37;8.20;99.90
18733;DHT22;9495;51.210;2.934;2024-02-26T10:19:05;8.20;99.90
18733;DHT22;9495;51.210;2.934;2024-02-26T10:21:34;8.70;99.90
18733;DHT22;9495;51.210;2.934;2024-02-26T10:24:02;8.60;99.90
18733;DHT22;9495;51.210;2.934;2024-02-26T10:26:31;8.60;99.90
18733;DHT22;9495;51.210;2.934;2024-02-26T10:29:00;8.30;99.90
18733;DHT22;9495;51.210;2.934;2024-02-26T10:31:30;8.20;99.90
18733;DHT22;9495;51.210;2.934;2024-02-26T10:33:59;8.30;99.90
18733;DHT22;9495;51.210;2.934;2024-02-26T10:36:33;8.00;99.90
18733;DHT22;9495;51.210;2.934;2024-02-26T10:39:18;8.30;99.90
18733;DHT22;9495;51.210;2.934;2024-02-26T10:41:47;8.30;99.90
18733;DHT22;9495;51.210;2.934;2024-02-26T10:44:16;8.00;99.90
18733;DHT22;9495;51.210;2.934;2024-02-26T10:46:48;8.00;99.90
18733;DHT22;9495;51.210;2.934;2024-02-26T10:49:17;7.70;99.90
18733;DHT22;9495;51.210;2.934;2024-02-26T10:51:54;7.90;99.90
18733;DHT22;9495;51.210;2.934;2024-02-26T10:54:25;7.90;99.90
18733;DHT22;9495;51.210;2.934;2024-02-26T10:56:56;8.00;99.90
18733;DHT22;9495;51.210;2.934;2024-02-26T10:59:25;7.70;99.90
18733;DHT22;9495;51.210;2.934;2024-02-26T11:01:56;7.70;99.90
18733;DHT22;9495;51.210;2.934;2024-02-26T11:04:26;7.80;99.90
18733;DHT22;9495;51.210;2.934;2024-02-26T11:06:57;7.70;99.90
18733;DHT22;9495;51.210;2.934;2024-02-26T11:09:28;7.70;99.90
18733;DHT22;9495;51.210;2.934;2024-02-26T11:11:57;7.80;99.90
18733;DHT22;9495;51.210;2.934;2024-02-26T11:14:29;7.70;99.90
18733;DHT22;9495;51.210;2.934;2024-02-26T11:17:00;7.80;99.90
18733;DHT22;9495;51.210;2.934;2024-02-26T11:19:30;7.70;99.90
18733;DHT22;9495;51.210;2.934;2024-02-26T11:22:04;7.80;99.90
18733;DHT22;9495;51.210;2.934;2024-02-26T11:24:47;7.50;99.90
18733;DHT22;9495;51.210;2.934;2024-02-26T11:27:17;7.60;99.90
18733;DHT22;9495;51.210;2.934;2024-02-26T11:29:49;8.10;99.90
18733;DHT22;9495;51.210;2.934;2024-02-26T11:32:21;7.90;99.90
18733;DHT22;9495;51.210;2.934;2024-02-26T11:34:50;8.70;99.90
18733;DHT22;9495;51.210;2.934;2024-02-26T11:37:19;9.80;99.90
18733;DHT22;9495;51.210;2.934;2024-02-26T11:39:48;10.80;99.90
18733;DHT22;9495;51.210;2.934;2024-02-26T11:42:23;10.00;99.90
18733;DHT22;9495;51.210;2.934;2024-02-26T11:44:53;10.30;99.90
18733;DHT22;9495;51.210;2.934;2024-02-26T11:47:24;10.30;99.90
18733;DHT22;9495;51.210;2.934;2024-02-26T11:49:52;10.70;99.90
18733;DHT22;9495;51.210;2.934;2024-02-26T11:52:21;10.60;99.90
18733;DHT22;9495;51.210;2.934;2024-02-26T11:54:51;10.70;99.90
18733;DHT22;9495;51.210;2.934;2024-02-26T11:57:21;10.70;99.90
18733;DHT22;9495;51.210;2.934;2024-02-26T11:59:50;10.70;99.90
18733;DHT22;9495;51.210;2.934;2024-02-26T12:02:43;10.60;99.90
18733;DHT22;9495;51.210;2.934;2024-02-26T12:05:15;10.70;99.90
18733;DHT22;9495;51.210;2.934;2024-02-26T12:07:45;10.70;99.90
18733;DHT22;9495;51.210;2.934;2024-02-26T12:10:23;10.80;99.90
18733;DHT22;9495;51.210;2.934;2024-02-26T12:12:59;11.10;99.90
18733;DHT22;9495;51.210;2.934;2024-02-26T12:15:32;10.50;99.90
18733;DHT22;9495;51.210;2.934;2024-02-26T12:18:07;10.00;99.90
18733;DHT22;9495;51.210;2.934;2024-02-26T12:20:37;11.80;99.90
18733;DHT22;9495;51.210;2.934;2024-02-26T12:23:05;11.50;99.90
18733;DHT22;9495;51.210;2.934;2024-02-26T12:25:34;11.40;99.90
18733;DHT22;9495;51.210;2.934;2024-02-26T12:28:03;11.50;99.90
18733;DHT22;9495;51.210;2.934;2024-02-26T12:30:31;11.30;99.90
18733;DHT22;9495;51.210;2.934;2024-02-26T12:33:00;11.70;99.90
18733;DHT22;9495;51.210;2.934;2024-02-26T12:35:30;11.70;99.90
18733;DHT22;9495;51.210;2.934;2024-02-26T12:37:59;11.70;99.90
18733;DHT22;9495;51.210;2.934;2024-02-26T12:40:28;11.20;99.90
18733;DHT22;9495;51.210;2.934;2024-02-26T12:42:57;13.30;99.90
18733;DHT22;9495;51.210;2.934;2024-02-26T12:45:26;12.90;99.90
18733;DHT22;9495;51.210;2.934;2024-02-26T12:47:55;12.00;99.90
18733;DHT22;9495;51.210;2.934;2024-02-26T12:50:24;11.60;99.90
18733;DHT22;9495;51.210;2.934;2024-02-26T12:52:54;12.40;99.90
18733;DHT22;9495;51.210;2.934;2024-02-26T12:55:23;11.80;99.90
18733;DHT22;9495;51.210;2.934;2024-02-26T12:57:52;12.00;99.90
18733;DHT22;9495;51.210;2.934;2024-02-26T13:00:27;12.00;99.90
18733;DHT22;9495;51.210;2.934;2024-02-26T13:02:56;11.20;99.90
18733;DHT22;9495;51.210;2.934;2024-02-26T13:05:25;11.60;99.90
18733;DHT22;9495;51.210;2.934;2024-02-26T13:07:56;11.60;99.90
18733;DHT22;9495;51.210;2.934;2024-02-26T13:10:24;11.80;99.90
18733;DHT22;9495;51.210;2.934;2024-02-26T13:12:53;11.60;99.90
18733;DHT22;9495;51.210;2.934;2024-02-26T13:15:22;11.40;99.90
18733;DHT22;9495;51.210;2.934;2024-02-26T13:17:51;11.10;99.90
18733;DHT22;9495;51.210;2.934;2024-02-26T13:20:27;11.30;99.90
18733;DHT22;9495;51.210;2.934;2024-02-26T13:23:04;11.30;99.90
18733;DHT22;9495;51.210;2.934;2024-02-26T13:25:34;11.40;99.90
18733;DHT22;9495;51.210;2.934;2024-02-26T13:28:14;11.30;99.90
18733;DHT22;9495;51.210;2.934;2024-02-26T13:30:50;11.10;99.90
18733;DHT22;9495;51.210;2.934;2024-02-26T13:33:21;10.70;99.90
18733;DHT22;9495;51.210;2.934;2024-02-26T13:35:50;10.80;99.90
18733;DHT22;9495;51.210;2.934;2024-02-26T13:38:21;10.70;99.90
18733;DHT22;9495;51.210;2.934;2024-02-26T13:40:50;11.40;99.90
18733;DHT22;9495;51.210;2.934;2024-02-26T13:43:19;10.80;99.90
18733;DHT22;9495;51.210;2.934;2024-02-26T13:45:47;11.40;99.90
18733;DHT22;9495;51.210;2.934;2024-02-26T13:48:16;11.00;99.90
18733;DHT22;9495;51.210;2.934;2024-02-26T13:50:44;10.30;99.90
18733;DHT22;9495;51.210;2.934;2024-02-26T13:53:14;10.20;99.90
18733;DHT22;9495;51.210;2.934;2024-02-26T13:55:44;10.70;99.90
18733;DHT22;9495;51.210;2.934;2024-02-26T13:58:13;10.50;99.90
18733;DHT22;9495;51.210;2.934;2024-02-26T14:00:42;10.80;99.90
18733;DHT22;9495;51.210;2.934;2024-02-26T14:03:11;10.70;99.90
18733;DHT22;9495;51.210;2.934;2024-02-26T14:05:40;10.10;99.90
18733;DHT22;9495;51.210;2.934;2024-02-26T14:08:14;10.90;99.90
18733;DHT22;9495;51.210;2.934;2024-02-26T14:10:44;10.80;99.90
18733;DHT22;9495;51.210;2.934;2024-02-26T14:13:13;10.70;99.90
18733;DHT22;9495;51.210;2.934;2024-02-26T14:15:41;10.90;99.90
18733;DHT22;9495;51.210;2.934;2024-02-26T14:18:10;10.40;99.90
18733;DHT22;9495;51.210;2.934;2024-02-26T14:20:39;11.20;99.90
18733;DHT22;9495;51.210;2.934;2024-02-26T14:23:07;10.40;99.90
18733;DHT22;9495;51.210;2.934;2024-02-26T14:25:35;10.60;99.90
18733;DHT22;9495;51.210;2.934;2024-02-26T14:28:05;9.90;99.90
18733;DHT22;9495;51.210;2.934;2024-02-26T14:30:37;10.10;99.90
18733;DHT22;9495;51.210;2.934;2024-02-26T14:33:05;10.10;99.90
18733;DHT22;9495;51.210;2.934;2024-02-26T14:35:34;11.00;99.90
18733;DHT22;9495;51.210;2.934;2024-02-26T14:38:02;10.70;99.90
18733;DHT22;9495;51.210;2.934;2024-02-26T14:40:31;10.60;99.90
18733;DHT22;9495;51.210;2.934;2024-02-26T14:42:59;10.80;99.90
18733;DHT22;9495;51.210;2.934;2024-02-26T14:45:29;11.00;99.90
18733;DHT22;9495;51.210;2.934;2024-02-26T14:47:59;10.60;99.90
18733;DHT22;9495;51.210;2.934;2024-02-26T14:50:28;10.90;99.90
18733;DHT22;9495;51.210;2.934;2024-02-26T14:52:57;10.60;99.90
18733;DHT22;9495;51.210;2.934;2024-02-26T14:55:27;10.90;99.90
18733;DHT22;9495;51.210;2.934;2024-02-26T14:57:55;11.30;99.90
18733;DHT22;9495;51.210;2.934;2024-02-26T15:00:24;11.00;99.90
18733;DHT22;9495;51.210;2.934;2024-02-26T15:02:54;11.10;99.90
18733;DHT22;9495;51.210;2.934;2024-02-26T15:05:23;11.40;99.90
18733;DHT22;9495;51.210;2.934;2024-02-26T15:07:51;11.60;99.90
18733;DHT22;9495;51.210;2.934;2024-02-26T15:10:20;11.30;99.90
18733;DHT22;9495;51.210;2.934;2024-02-26T15:12:48;10.80;99.90
18733;DHT22;9495;51.210;2.934;2024-02-26T15:15:18;10.30;99.90
18733;DHT22;9495;51.210;2.934;2024-02-26T15:17:47;10.60;99.90
18733;DHT22;9495;51.210;2.934;2024-02-26T15:20:17;11.20;99.90
18733;DHT22;9495;51.210;2.934;2024-02-26T15:22:46;11.60;99.90
18733;DHT22;9495;51.210;2.934;2024-02-26T15:25:15;10.70;99.90
18733;DHT22;9495;51.210;2.934;2024-02-26T15:27:44;10.60;99.90
18733;DHT22;9495;51.210;2.934;2024-02-26T15:30:13;10.90;99.90
18733;DHT22;9495;51.210;2.934;2024-02-26T15:32:41;10.50;99.90
18733;DHT22;9495;51.210;2.934;2024-02-26T15:35:11;10.60;99.90
18733;DHT22;9495;51.210;2.934;2024-02-26T15:37:41;10.90;99.90
18733;DHT22;9495;51.210;2.934;2024-02-26T15:40:10;10.60;99.90
18733;DHT22;9495;51.210;2.934;2024-02-26T15:42:39;10.60;99.90
18733;DHT22;9495;51.210;2.934;2024-02-26T15:45:08;11.10;99.90
18733;DHT22;9495;51.210;2.934;2024-02-26T15:47:36;10.80;99.90
18733;DHT22;9495;51.210;2.934;2024-02-26T15:50:05;10.50;99.90
18733;DHT22;9495;51.210;2.934;2024-02-26T15:52:34;10.40;99.90
18733;DHT22;9495;51.210;2.934;2024-02-26T15:55:04;10.20;99.90
18733;DHT22;9495;51.210;2.934;2024-02-26T15:57:33;10.10;99.90
18733;DHT22;9495;51.210;2.934;2024-02-26T16:00:01;10.30;99.90
18733;DHT22;9495;51.210;2.934;2024-02-26T16:02:37;10.20;99.90
18733;DHT22;9495;51.210;2.934;2024-02-26T16:05:07;11.00;99.90
18733;DHT22;9495;51.210;2.934;2024-02-26T16:07:42;10.90;99.90